Mistral — TCCH — position and weather

sailwx.info

Track history (hours):
 
Tides and Currents Weather Stations Pressure Air Temp Water Temp Dewpoint Dewpoint Depression Visibility Wind Speed Wind Dir Waves Ship Positions

Mistral

Last reported at 2016-Jul-29 03:33 UTC. Time now 2016-Jul-29 10:13 UTC.
Position N 37°39' E 009°22'.

Length 130 m; draft 6.3 m.

Type: Cargo ship. MMSI: 271000615.

Date/timePositionNaut miles runAvg speedWind from/ knotsBaromVisibWave heightAir tempDewpointWater temp
2016-Jul-29 03:33N 37°39' E 009°22'82 8.8
2016-Jul-28 18:12N 37°28' E 011°05'56 5.2
2016-Jul-28 07:23N 37°12' E 012°13'9 9.2
2016-Jul-28 06:21N 37°10' E 012°24'9 9.5
2016-Jul-28 05:26N 37°08' E 012°35'27 9.2
2016-Jul-28 02:30N 36°59' E 013°07'10 9.1
2016-Jul-28 01:26N 36°54' E 013°17'9 8.5
2016-Jul-28 00:23N 36°50' E 013°27'7 8.4
2016-Jul-27 23:33N 36°48' E 013°35'9 8.8
2016-Jul-27 22:33N 36°45' E 013°46'9 9.2
2016-Jul-27 21:34N 36°42' E 013°56'9 9.3
2016-Jul-27 20:34N 36°39' E 014°08'9 8.8
2016-Jul-27 19:33N 36°37' E 014°18'7 7.5
2016-Jul-27 18:34N 36°38' E 014°27'9 9.3
2016-Jul-27 17:34N 36°38' E 014°39'9 8.9
2016-Jul-27 16:33N 36°36' E 014°50'  
2016-Jul-20 18:32N 45°12' E 036°28'7 7.5
2016-Jul-20 17:33N 45°19' E 036°31'8 8.3
2016-Jul-20 16:33N 45°24' E 036°40'9 8.6
2016-Jul-20 15:33N 45°32' E 036°40'  
Track history (hours):
 
Tides and Currents Weather Stations Pressure Air Temp Water Temp Dewpoint Dewpoint Depression Visibility Wind Speed Wind Dir Waves Ship Positions

Mistral

Last reported at 2016-Jul-29 03:33 UTC. Time now 2016-Jul-29 10:13 UTC.
Position N 37°39' E 009°22'.

Length 130 m; draft 6.3 m.

Type: Cargo ship. MMSI: 271000615.

Date/timePositionNaut miles runAvg speedWind from/ knotsBaromVisibWave heightAir tempDewpointWater temp
2016-Jul-29 03:33N 37°39' E 009°22'82 8.8
2016-Jul-28 18:12N 37°28' E 011°05'56 5.2
2016-Jul-28 07:23N 37°12' E 012°13'9 9.2
2016-Jul-28 06:21N 37°10' E 012°24'9 9.5
2016-Jul-28 05:26N 37°08' E 012°35'27 9.2
2016-Jul-28 02:30N 36°59' E 013°07'10 9.1
2016-Jul-28 01:26N 36°54' E 013°17'9 8.5
2016-Jul-28 00:23N 36°50' E 013°27'7 8.4
2016-Jul-27 23:33N 36°48' E 013°35'9 8.8
2016-Jul-27 22:33N 36°45' E 013°46'9 9.2
2016-Jul-27 21:34N 36°42' E 013°56'9 9.3
2016-Jul-27 20:34N 36°39' E 014°08'9 8.8
2016-Jul-27 19:33N 36°37' E 014°18'7 7.5
2016-Jul-27 18:34N 36°38' E 014°27'9 9.3
2016-Jul-27 17:34N 36°38' E 014°39'9 8.9
2016-Jul-27 16:33N 36°36' E 014°50'  
2016-Jul-20 18:32N 45°12' E 036°28'7 7.5
2016-Jul-20 17:33N 45°19' E 036°31'8 8.3
2016-Jul-20 16:33N 45°24' E 036°40'9 8.6
2016-Jul-20 15:33N 45°32' E 036°40'  

Dump ship's entire track history